Ireland METAR reports

 

EIDW - Dublin Airport, Ireland
Distance from station: WNW 13km
Updated: 18/11/2017 13:30
Mostly cloudy
Mostly cloudy
 Wind from W
Wind: W 13 km/h
Temperature: 8°C
Wind Chill: 6°C
Dew Point: 6°C
Humidity: 87%
Barometer: 1022 hPa
Clouds: Mostly cloudy
Visibility: 10 km
Cloud details: Few Clouds 610 m
Partly cloudy 1829 m
Mostly cloudy 2743 m
2017/11/18 13:30 EIDW 181330Z 28007KT 9999 FEW020 SCT060 BKN090 08/06 Q1022 NOSIG
EIME - Casement (mil), Ireland
Distance from station: WSW 26km
Updated: 18/11/2017 13:00
Mostly cloudy
Mostly cloudy
 Wind from W
Wind: W 15 km/h
Temperature: 8°C
Wind Chill: 5°C
Dew Point: 6°C
Humidity: 87%
Barometer: 1022 hPa
Clouds: Mostly cloudy
Visibility: 10 km
Cloud details: Few Clouds 610 m
Partly cloudy 1219 m
Mostly cloudy 1829 m
2017/11/18 13:00 EIME 181300Z 26008KT 9999 FEW020 SCT040 BKN060 08/06 Q1022
EGAC - Belfast Harbour, United Kingdom
Distance from station: N 140km
Updated: 18/11/2017 12:50
Partly cloudy
Partly cloudy
 Wind from WSW
Wind: WSW 9 km/h
Temperature: 8°C
Wind Chill: 6°C
Dew Point: 6°C
Humidity: 87%
Barometer: 1022 hPa
Clouds: Partly cloudy
Visibility: 10 km
Cloud details: Few Clouds 366 m
Partly cloudy 853 m
2017/11/18 12:50 EGAC 181250Z 25005KT 220V280 9999 FEW012 SCT028 08/06 Q1022
 
EGAA - Belfast/Aldergro, United Kingdom
Distance from station: N 141km
Updated: 18/11/2017 13:20
Partly cloudy
Partly cloudy
 Wind from WNW
Wind: WNW 17 km/h
Temperature: 8°C
Wind Chill: 5°C
Dew Point: 6°C
Humidity: 87%
Barometer: 1022 hPa
Clouds: Partly cloudy
Visibility: 10 km
Cloud details: Few Clouds 792 m
Partly cloudy 1006 m
2017/11/18 13:20 EGAA 181320Z 29009KT 9999 FEW026 SCT033 08/06 Q1022
EIWF - Waterford Arpt, Ireland
Distance from station: SSW 148km
Updated: 18/11/2017 13:00
Partly cloudy
Partly cloudy
 Wind from W
Wind: W 11 km/h
Temperature: 12°C
Dew Point: 10°C
Humidity: 88%
Barometer: 1023 hPa
Clouds: Partly cloudy
Visibility: 10 km
Cloud details: Partly cloudy 823 m
Partly cloudy 1341 m
2017/11/18 13:00 EIWF 181300Z 28006KT 230V300 9999 SCT027 SCT044 12/10 Q1023 R21/1/////
EIKN - Connaught Apt, Ireland
Distance from station: WNW 191km
Updated: 18/11/2017 13:30
Mostly cloudy
Mostly cloudy
 Wind from WNW
Wind: WNW 7 km/h
Temperature: 8°C
Wind Chill: 7°C
Dew Point: 6°C
Humidity: 87%
Barometer: 1023 hPa
Clouds: Mostly cloudy
Visibility: 10 km
Cloud details: Few Clouds 305 m
Partly cloudy 914 m
Mostly cloudy 3658 m
2017/11/18 13:30 EIKN 181330Z 30004KT 9999 FEW010 SCT030 BKN120 08/06 Q1023 NOSIG
 
EISG - Sligo Arpt, Ireland
Distance from station: WNW 195km
Updated: 18/11/2017 13:00
Overcast
Overcast
 Wind from NNW
Wind: NNW 11 km/h
Temperature: 9°C
Wind Chill: 7°C
Dew Point: 6°C
Humidity: 82%
Barometer: 1023 hPa
Clouds: Overcast
Visibility: 10 km
Cloud details: Few Clouds 762 m
Overcast 1250 m
2017/11/18 13:00 EISG 181300Z 33006KT 9999 FEW025 OVC041 09/06 Q1023
EGAE - Eglinton/Londond, United Kingdom
Distance from station: NNW 198km
Updated: 18/11/2017 13:20
Partly cloudy
Partly cloudy
 Wind from WNW
Wind: WNW 11 km/h
Temperature: 9°C
Wind Chill: 7°C
Dew Point: 5°C
Humidity: 76%
Barometer: 1022 hPa
Clouds: Partly cloudy
Visibility: 10 km
Cloud details: Few Clouds 610 m
Partly cloudy 1311 m
2017/11/18 13:20 EGAE 181320Z 29006KT 9999 FEW020 SCT043 09/05 Q1022
EINN - Shannon Airport, Ireland
Distance from station: WSW 204km
Updated: 18/11/2017 13:30
Light rain, Drizzle, Overcast
Light rain, Drizzle, Overcast
 Wind from NNE
Wind: NNE 7 km/h
Temperature: 9°C
Wind Chill: 8°C
Dew Point: 8°C
Humidity: 94%
Barometer: 1023 hPa
Summary: Light rain, Drizzle
Clouds: Overcast
Visibility: 7 km
Cloud details: Overcast 122 m
2017/11/18 13:30 EINN 181330Z 02004KT 7000 -RADZ OVC004 09/08 Q1023 TEMPO 4000
 
EICK - Cork Arpt/Corcai, Ireland
Distance from station: SW 234km
Updated: 18/11/2017 13:30
Mostly cloudy
Mostly cloudy
 Wind from WSW
Wind: WSW 20 km/h
Temperature: 13°C
Dew Point: 11°C
Humidity: 88%
Barometer: 1023 hPa
Clouds: Mostly cloudy
Visibility: 10 km
Cloud details: Few Clouds 427 m
Partly cloudy 1524 m
Mostly cloudy 4267 m
2017/11/18 13:30 EICK 181330Z 25011KT 9999 FEW014 SCT050 BKN140 13/11 Q1023 NOSIG